createdAt,value
2022-08-18T00:03:54.059Z,3.88
2022-08-18T00:08:38.673Z,3.20
2022-08-18T00:13:32.151Z,5.35
2022-08-18T00:18:25.901Z,3.60
2022-08-18T00:23:19.329Z,3.53
2022-08-18T00:28:14.746Z,3.53
2022-08-18T00:33:08.121Z,3.92
2022-08-18T00:38:05.878Z,3.63
2022-08-18T00:43:03.281Z,3.08
2022-08-18T00:47:58.358Z,3.95
2022-08-18T00:53:00.375Z,3.53
2022-08-18T00:58:01.306Z,3.50
2022-08-18T01:03:01.509Z,4.05
2022-08-18T01:07:55.031Z,3.78
2022-08-18T01:12:54.037Z,3.67
2022-08-18T01:18:06.073Z,3.40
2022-08-18T01:23:09.340Z,3.53
2022-08-18T01:28:03.420Z,3.50
2022-08-18T01:32:58.658Z,3.30
2022-08-18T01:37:52.967Z,4.85
2022-08-18T01:42:47.775Z,4.43
2022-08-18T01:47:48.190Z,4.53
2022-08-18T01:52:42.155Z,3.92
2022-08-18T01:57:41.230Z,5.40
2022-08-18T02:02:35.932Z,4.18
2022-08-18T02:07:35.956Z,4.18
2022-08-18T02:12:29.883Z,4.05
2022-08-18T02:17:23.861Z,4.38
2022-08-18T02:22:21.991Z,3.97
2022-08-18T02:27:17.692Z,4.15
2022-08-18T02:32:11.056Z,3.55
2022-08-18T02:37:05.075Z,3.67
2022-08-18T02:41:59.764Z,3.53
2022-08-18T02:46:55.543Z,3.50
2022-08-18T02:51:49.758Z,3.63
2022-08-18T02:56:45.562Z,3.92
2022-08-18T03:01:44.461Z,3.78
2022-08-18T03:06:40.290Z,4.38
2022-08-18T03:11:34.111Z,4.82
2022-08-18T03:16:33.110Z,4.13
2022-08-18T03:21:30.983Z,4.28
2022-08-18T03:26:26.408Z,4.50
2022-08-18T03:31:22.819Z,3.97
2022-08-18T03:36:21.230Z,3.65
2022-08-18T03:41:44.104Z,4.90
2022-08-18T03:46:36.657Z,4.88
2022-08-18T03:51:33.056Z,4.97
2022-08-18T03:56:33.167Z,4.70
2022-08-18T04:01:32.794Z,3.95
2022-08-18T04:06:29.931Z,3.85
2022-08-18T04:11:24.764Z,3.88
2022-08-18T04:16:19.741Z,3.78
2022-08-18T04:21:14.690Z,4.65
2022-08-18T04:26:10.282Z,4.03
2022-08-18T04:31:16.142Z,4.00
2022-08-18T04:36:18.682Z,3.83
2022-08-18T04:41:15.175Z,4.38
2022-08-18T04:46:09.230Z,4.15
2022-08-18T04:51:08.731Z,5.20
2022-08-18T04:56:04.105Z,3.83
2022-08-18T05:01:02.980Z,5.70
2022-08-18T05:05:58.315Z,4.75
2022-08-18T05:10:58.074Z,4.80
2022-08-18T05:16:18.169Z,5.45
2022-08-18T05:21:17.213Z,6.00
2022-08-18T05:26:13.433Z,5.00
2022-08-18T05:31:14.275Z,7.45
2022-08-18T05:36:38.208Z,6.65
2022-08-18T05:41:37.636Z,6.30
2022-08-18T05:46:45.341Z,5.20
2022-08-18T05:51:45.965Z,4.85
2022-08-18T05:56:50.369Z,5.35
2022-08-18T06:01:52.703Z,4.72
2022-08-18T06:06:48.010Z,4.80
2022-08-18T06:11:42.359Z,5.22
2022-08-18T06:17:01.892Z,5.25
2022-08-18T06:22:12.007Z,5.18
2022-08-18T06:27:20.231Z,4.70
2022-08-18T06:32:29.268Z,4.35
2022-08-18T06:37:31.921Z,5.03
2022-08-18T06:42:30.704Z,4.60
2022-08-18T06:47:40.834Z,4.20
2022-08-18T06:52:38.240Z,5.00
2022-08-18T06:57:35.698Z,4.93
2022-08-18T07:02:49.449Z,5.95
2022-08-18T07:07:44.078Z,5.40
2022-08-18T07:12:37.543Z,4.32
2022-08-18T07:17:43.668Z,5.13
2022-08-18T07:22:59.796Z,4.97
2022-08-18T07:27:56.284Z,5.47
2022-08-18T07:33:03.801Z,5.88
2022-08-18T07:38:24.558Z,5.57
2022-08-18T07:43:39.164Z,4.60
2022-08-18T07:48:38.762Z,4.82
2022-08-18T07:53:54.790Z,4.72
2022-08-18T07:59:00.230Z,5.80
2022-08-18T08:04:25.115Z,5.10
2022-08-18T08:09:30.916Z,5.60
2022-08-18T08:14:43.122Z,6.07
2022-08-18T08:20:04.133Z,5.45
2022-08-18T08:25:22.735Z,5.50
2022-08-18T08:30:26.374Z,4.82
2022-08-18T08:35:51.644Z,5.20
2022-08-18T08:40:55.222Z,6.72
2022-08-18T08:46:08.227Z,4.30
2022-08-18T08:51:25.606Z,6.78
2022-08-18T08:56:30.605Z,4.55
2022-08-18T09:01:34.777Z,5.72
2022-08-18T09:06:41.890Z,6.80
2022-08-18T09:12:13.265Z,5.97
2022-08-18T09:17:39.929Z,6.38
2022-08-18T09:22:54.489Z,4.22
2022-08-18T09:28:09.808Z,3.97
2022-08-18T09:33:21.773Z,4.72
2022-08-18T09:38:45.211Z,3.17
2022-08-18T09:43:55.629Z,5.55
2022-08-18T09:48:50.041Z,6.07
2022-08-18T09:59:59.404Z,5.60
2022-08-18T10:05:28.681Z,5.93
2022-08-18T10:10:59.951Z,5.32
2022-08-18T10:16:10.742Z,6.47
2022-08-18T10:21:18.863Z,5.45
2022-08-18T10:27:09.371Z,5.38
2022-08-18T10:32:54.737Z,4.30
2022-08-18T10:37:50.833Z,5.07
2022-08-18T10:42:53.833Z,5.72
2022-08-18T10:48:11.831Z,4.18
2022-08-18T10:53:40.284Z,6.13
2022-08-18T10:59:17.150Z,4.60
2022-08-18T11:04:32.971Z,6.00
2022-08-18T11:09:31.640Z,5.80
2022-08-18T11:15:22.232Z,4.80
2022-08-18T11:20:22.458Z,4.53
2022-08-18T11:25:28.947Z,3.78
2022-08-18T11:30:30.335Z,5.40
2022-08-18T11:35:33.364Z,4.50
2022-08-18T11:45:57.042Z,4.32
2022-08-18T11:51:10.143Z,4.90
2022-08-18T11:56:16.162Z,4.55
2022-08-18T12:01:11.220Z,4.82
2022-08-18T12:06:23.558Z,5.15
2022-08-18T12:11:27.505Z,4.38
2022-08-18T12:16:36.988Z,3.70
2022-08-18T12:21:36.687Z,3.97
2022-08-18T12:26:57.612Z,4.05
2022-08-18T12:32:48.938Z,3.45
2022-08-18T12:38:03.702Z,3.80
2022-08-18T12:43:12.256Z,5.05
2022-08-18T12:48:22.293Z,3.85
2022-08-18T12:53:18.962Z,3.80
2022-08-18T12:58:24.929Z,3.80
2022-08-18T13:03:29.889Z,3.85
2022-08-18T13:08:38.172Z,3.50
2022-08-18T13:14:08.854Z,3.70
2022-08-18T13:19:32.068Z,4.70
2022-08-18T13:24:31.344Z,4.40
2022-08-18T13:29:28.165Z,3.97
2022-08-18T13:34:21.929Z,3.58
2022-08-18T13:39:21.020Z,5.93
2022-08-18T13:44:52.799Z,4.05
2022-08-18T13:50:39.699Z,4.15
2022-08-18T13:56:32.772Z,3.60
2022-08-18T14:02:26.901Z,3.75
2022-08-18T14:14:45.446Z,3.80
2022-08-18T14:20:22.029Z,4.28
2022-08-18T14:32:28.547Z,5.13
2022-08-18T14:37:51.838Z,4.35
2022-08-18T16:39:12.445Z,11.40
2022-08-18T16:44:20.461Z,11.73
2022-08-18T16:49:15.690Z,9.75
2022-08-18T16:54:10.672Z,11.60
2022-08-18T16:59:22.151Z,12.55
2022-08-18T17:04:20.893Z,12.15
2022-08-18T17:09:16.469Z,13.32
2022-08-18T17:14:10.078Z,10.68
2022-08-18T17:19:05.908Z,10.02
2022-08-18T17:24:01.172Z,10.30
2022-08-18T17:29:07.954Z,9.13
2022-08-18T17:34:10.010Z,8.68
2022-08-18T17:39:09.556Z,9.32
2022-08-18T17:44:09.495Z,8.25
2022-08-18T17:49:12.103Z,8.25
2022-08-18T17:54:19.131Z,9.02
2022-08-18T17:59:51.242Z,10.13
2022-08-18T18:04:37.413Z,10.25
2022-08-18T18:09:36.658Z,8.40
2022-08-18T18:14:37.674Z,9.43
2022-08-18T18:19:32.975Z,9.85
2022-08-18T18:24:34.470Z,11.95
2022-08-18T18:29:37.734Z,11.02
2022-08-18T18:34:39.195Z,11.15
2022-08-18T18:39:36.681Z,9.75
2022-08-18T18:44:32.892Z,8.27
2022-08-18T18:49:33.353Z,11.07
2022-08-18T18:54:58.221Z,11.07
2022-08-18T19:00:10.096Z,10.75
2022-08-18T19:05:23.234Z,9.65
2022-08-18T19:10:30.255Z,9.07
2022-08-18T19:15:27.172Z,9.57
2022-08-18T19:20:28.523Z,11.20
2022-08-18T19:25:28.964Z,9.25
2022-08-18T19:30:24.482Z,9.02
2022-08-18T19:35:25.656Z,8.25
2022-08-18T19:40:40.499Z,10.68
2022-08-18T19:45:46.413Z,8.73
2022-08-18T19:50:49.564Z,9.00
2022-08-18T19:56:04.673Z,8.25
2022-08-18T20:01:04.097Z,8.13
2022-08-18T20:06:33.309Z,10.95
2022-08-18T20:11:54.813Z,10.85
2022-08-18T20:17:16.837Z,9.77
2022-08-18T20:22:16.268Z,10.05
2022-08-18T20:27:32.874Z,7.97
2022-08-18T20:32:35.507Z,8.75
2022-08-18T20:37:31.882Z,10.18
2022-08-18T20:43:06.546Z,7.90
2022-08-18T20:48:33.616Z,9.52
2022-08-18T20:54:01.395Z,9.23
2022-08-18T20:59:03.826Z,10.13
2022-08-18T21:04:04.075Z,8.02
2022-08-18T21:08:58.311Z,8.35
2022-08-18T21:13:56.550Z,8.18
2022-08-18T21:18:52.932Z,8.70
2022-08-18T21:23:55.865Z,8.10
2022-08-18T21:28:58.501Z,7.10
2022-08-18T21:33:55.011Z,7.22
2022-08-18T21:38:58.518Z,7.93
2022-08-18T21:44:06.114Z,9.20
2022-08-18T21:49:04.349Z,7.97
2022-08-18T21:54:00.825Z,8.27
2022-08-18T21:59:09.689Z,8.15
2022-08-18T22:04:18.209Z,6.95
2022-08-18T22:09:38.779Z,7.95
2022-08-18T22:14:55.101Z,7.63
2022-08-18T22:19:49.158Z,8.15
2022-08-18T22:24:43.980Z,8.10
2022-08-18T22:29:46.410Z,8.48
2022-08-18T22:34:40.534Z,6.03
2022-08-18T22:39:39.215Z,6.03
2022-08-18T22:44:34.113Z,5.93
2022-08-18T22:49:27.918Z,6.15
2022-08-18T22:54:22.412Z,5.18
2022-08-18T22:59:19.656Z,5.70
2022-08-18T23:04:17.002Z,6.13
2022-08-18T23:09:10.354Z,5.78
2022-08-18T23:14:04.000Z,6.93
2022-08-18T23:19:01.657Z,7.22
2022-08-18T23:23:57.573Z,7.72
2022-08-18T23:28:53.359Z,9.25
2022-08-18T23:33:47.534Z,6.07
2022-08-18T23:38:40.906Z,5.53
2022-08-18T23:43:37.291Z,6.32
2022-08-18T23:48:30.896Z,5.40
2022-08-18T23:53:24.232Z,5.43
2022-08-18T23:58:17.571Z,4.65
